Terminal Aerodrome Forecast
Issued by NWS

Home | Current Version | Previous Version | Text Only | Print | Product List | Glossary On
Versions: 1 2 3 4 5 6 7 8 9 10 11 12 13 14 15 16 17 18 19 20 21 22 23 24 25 26 27 28 29
000
FTUS45 KGJT 210735 AAA
TAFRIL
TAF AMD
KRIL 210735Z 2108/2206 31006KT 4SM -SN BR BKN007 OVC021
     FM210900 27005KT 2SM -SHSN BKN020 BKN030
     FM211100 28006KT P6SM VCSH BKN015 BKN030
     FM211800 29016G24KT 3SM BR BKN035
     FM212300 31013KT P6SM BKN035 BKN040=

USA.gov is the U.S. government's official web portal to all federal, state and local government web resources and services.